Burgos, Spain

1:57 PM CEST on June 02, 2015 (GMT +0200)
Illera | | Change Station
CLOSE
Current Station
Personal Weather Station
Location: Burgos, CASTILLA Y LE�N
Elevation: 2851 ft
Nearby Weather Stations

Elev 2851 ft 42.35 °N, 3.69 °W | Updated 3 seconds ago

Partly Cloudy
Partly Cloudy
86.5 °F
Feels Like 84 °F
N
8.1
Wind Variable Wind from SSE
Gusts 8.1 mph

Today
High -- | Low -- °F
--% Chance of Precip.
Yesterday
High -- | Low -- °F
Precip. -- in
6:40 AM 9:45 PM
Full, 100% visible
Pressure 30.12 in
Visibility 6.2 miles
Clouds Few 2000 ft
Heat Index 84 °F
Dew Point 52 °F
Humidity 31%
Rainfall 0.00 in
Snow Depth Not available.
UV 12 out of 12
Pollen Not available.
Air Quality Not available.
Flu Activity Not available.
METAR LEVT 021130Z 34002KT 9999 FEW020 23/16 Q1020

More Conditions Fewer Conditions

Pressure 30.12 in
Visibility 6.2 miles
Clouds Few 2000 ft
Heat Index 84 °F
Dew Point 52 °F
Humidity 31%
Rainfall 0.00 in
Snow Depth Not available.
UV 12 out of 12
Pollen Not available.
Air Quality Not available.
Flu Activity Not available.
METAR LEVT 021130Z 34002KT 9999 FEW020 23/16 Q1020

More Conditions Fewer Conditions

10-Day Weather Forecast

Almanac

Astronomy

Jun. 02, 2015 Rise Set
Actual Time
Civil Twilight
Nautical Twilight
Astronomical Twilight
Moon
Length of Visible Light
Length of Day
Tomorrow will be .
, % of the Moon is Illuminated

Today's Extremes

Country Highs Country Lows

Community

WunderPhotos

Upload Photos

1,825,896 photos uploaded!

WunderBlogs® & News

Nearby

Air Quality

  Air Quality AQ Index Pollutant
Not available.

Snow Depth

Station Depth Elevation

Earthquake Activity

City Distance Mag. Time & Date
Minimum magnitude displayed is 2.5.

Coastal Water Temperatures

Place Temperature

Stations

Nearby Weather Stations

Station Location Temp. Windchill Dew Point Humidity Wind Precip. Elev Updated Type